BAW7AZ EDDM-EGLL
Flight info
| Callsign | BAW7AZ |
|---|---|
| Flight time | N/A |
| Altitude | 38000 |
| Route | GIVMI1N GIVMI Y101 INBED DCT REKDI DCT LOHRE DCT ADKUV DCT DENUT L608 LOGAN |
| Aircraft | A321/M-SDE3FGHIRWY/LB1 |
Departure
| Time | 2026-05-07 08:53 |
|---|---|
| Airport | Munich Airport (EDDM) |
Arrival
| Time | N/A |
|---|---|
| Airport | London Heathrow Airport (EGLL) |
| Time | Latitude | Longitude | Altitude | Speed | Heading |
|---|---|---|---|---|---|
| 2026-05-07 08:28 | 48.35732 | 11.79694 | 1472 ft | 0 kts | 83° |
| 2026-05-07 08:39 | 48.35731 | 11.79681 | 1471 ft | 4 kts | 83° |
| 2026-05-07 08:39 | 48.35727 | 11.79641 | 1477 ft | 4 kts | 78° |
| 2026-05-07 08:39 | 48.35721 | 11.79602 | 1484 ft | 4 kts | 71° |
| 2026-05-07 08:40 | 48.35710 | 11.79566 | 1471 ft | 4 kts | 50° |
| 2026-05-07 08:40 | 48.35693 | 11.79549 | 1477 ft | 2 kts | 354° |
| 2026-05-07 08:42 | 48.35694 | 11.79549 | 1476 ft | 1 kts | 353° |
| 2026-05-07 08:43 | 48.35705 | 11.79547 | 1471 ft | 2 kts | 353° |
| 2026-05-07 08:43 | 48.35726 | 11.79543 | 1479 ft | 4 kts | 353° |
| 2026-05-07 08:43 | 48.35761 | 11.79537 | 1480 ft | 7 kts | 353° |
| 2026-05-07 08:43 | 48.35813 | 11.79528 | 1479 ft | 9 kts | 353° |
| 2026-05-07 08:44 | 48.35881 | 11.79515 | 1482 ft | 11 kts | 353° |
| 2026-05-07 08:44 | 48.35960 | 11.79502 | 1474 ft | 12 kts | 354° |
| 2026-05-07 08:44 | 48.36051 | 11.79486 | 1482 ft | 13 kts | 353° |
| 2026-05-07 08:44 | 48.36111 | 11.79547 | 1480 ft | 12 kts | 78° |
| 2026-05-07 08:45 | 48.36122 | 11.79685 | 1473 ft | 14 kts | 83° |
| 2026-05-07 08:45 | 48.36133 | 11.79842 | 1479 ft | 16 kts | 83° |
| 2026-05-07 08:45 | 48.36147 | 11.80012 | 1485 ft | 16 kts | 83° |
| 2026-05-07 08:45 | 48.36159 | 11.80174 | 1480 ft | 14 kts | 83° |
| 2026-05-07 08:46 | 48.36170 | 11.80315 | 1480 ft | 14 kts | 83° |
| 2026-05-07 08:46 | 48.36182 | 11.80462 | 1480 ft | 15 kts | 83° |
| 2026-05-07 08:46 | 48.36193 | 11.80612 | 1481 ft | 15 kts | 83° |
| 2026-05-07 08:46 | 48.36205 | 11.80771 | 1485 ft | 15 kts | 83° |
| 2026-05-07 08:47 | 48.36217 | 11.80924 | 1483 ft | 14 kts | 83° |
| 2026-05-07 08:47 | 48.36228 | 11.81068 | 1485 ft | 13 kts | 83° |
| 2026-05-07 08:47 | 48.36239 | 11.81209 | 1474 ft | 14 kts | 84° |
| 2026-05-07 08:47 | 48.36250 | 11.81361 | 1485 ft | 15 kts | 83° |
| 2026-05-07 08:48 | 48.36263 | 11.81523 | 1485 ft | 16 kts | 83° |
| 2026-05-07 08:48 | 48.36276 | 11.81693 | 1485 ft | 17 kts | 83° |
| 2026-05-07 08:48 | 48.36290 | 11.81871 | 1485 ft | 17 kts | 80° |
| 2026-05-07 08:48 | 48.36356 | 11.81979 | 1483 ft | 13 kts | 38° |
| 2026-05-07 08:49 | 48.36437 | 11.82005 | 1484 ft | 13 kts | 354° |
| 2026-05-07 08:49 | 48.36528 | 11.81988 | 1477 ft | 14 kts | 353° |
| 2026-05-07 08:49 | 48.36564 | 11.81982 | 1485 ft | 0 kts | 353° |
| 2026-05-07 08:51 | 48.36565 | 11.81982 | 1475 ft | 1 kts | 353° |
| 2026-05-07 08:51 | 48.36584 | 11.81979 | 1480 ft | 4 kts | 353° |
| 2026-05-07 08:51 | 48.36626 | 11.81969 | 1475 ft | 8 kts | 345° |
| 2026-05-07 08:51 | 48.36668 | 11.81904 | 1473 ft | 10 kts | 290° |
| 2026-05-07 08:52 | 48.36669 | 11.81860 | 1482 ft | 0 kts | 264° |
| 2026-05-07 08:52 | 48.36667 | 11.81832 | 1472 ft | 16 kts | 264° |
| 2026-05-07 08:52 | 48.36624 | 11.81278 | 1476 ft | 88 kts | 263° |
| 2026-05-07 08:52 | 48.36529 | 11.80052 | 1480 ft | 145 kts | 263° |
| 2026-05-07 08:53 | 48.36405 | 11.78365 | 1761 ft | 169 kts | 264° |
| 2026-05-07 08:53 | 48.36274 | 11.76610 | 2426 ft | 172 kts | 264° |
| 2026-05-07 08:53 | 48.36141 | 11.74815 | 2978 ft | 177 kts | 263° |
| 2026-05-07 08:53 | 48.35992 | 11.72861 | 3149 ft | 199 kts | 263° |
| 2026-05-07 08:54 | 48.35823 | 11.70724 | 3632 ft | 209 kts | 263° |
| 2026-05-07 08:54 | 48.35720 | 11.68528 | 4377 ft | 214 kts | 276° |
| 2026-05-07 08:54 | 48.36275 | 11.66379 | 4839 ft | 234 kts | 297° |
| 2026-05-07 08:54 | 48.37154 | 11.64200 | 5249 ft | 250 kts | 299° |
| 2026-05-07 08:55 | 48.38089 | 11.61961 | 5988 ft | 255 kts | 299° |
| 2026-05-07 08:55 | 48.39043 | 11.59681 | 6690 ft | 260 kts | 299° |
| 2026-05-07 08:55 | 48.40006 | 11.57364 | 7400 ft | 263 kts | 298° |
| 2026-05-07 08:55 | 48.40960 | 11.55048 | 8103 ft | 265 kts | 298° |
| 2026-05-07 08:56 | 48.41932 | 11.52675 | 8808 ft | 268 kts | 298° |
| 2026-05-07 08:56 | 48.42910 | 11.50276 | 9471 ft | 271 kts | 297° |
| 2026-05-07 08:56 | 48.43897 | 11.47846 | 10161 ft | 274 kts | 297° |
| 2026-05-07 08:56 | 48.44994 | 11.45475 | 10785 ft | 281 kts | 309° |
| 2026-05-07 08:57 | 48.46526 | 11.43584 | 11385 ft | 291 kts | 325° |
| 2026-05-07 08:57 | 48.48478 | 11.42375 | 11548 ft | 319 kts | 344° |
| 2026-05-07 08:57 | 48.49961 | 11.41958 | 11647 ft | 334 kts | 346° |
| 2026-05-07 08:57 | 48.53081 | 11.41130 | 12122 ft | 349 kts | 347° |
| 2026-05-07 08:58 | 48.55488 | 11.40490 | 12677 ft | 353 kts | 347° |
| 2026-05-07 08:58 | 48.57922 | 11.39838 | 13256 ft | 357 kts | 347° |
| 2026-05-07 08:58 | 48.60382 | 11.39167 | 13834 ft | 361 kts | 347° |
| 2026-05-07 08:58 | 48.62865 | 11.38482 | 14354 ft | 365 kts | 347° |
| 2026-05-07 08:59 | 48.65370 | 11.37789 | 14895 ft | 368 kts | 346° |
| 2026-05-07 08:59 | 48.67894 | 11.37071 | 15411 ft | 370 kts | 344° |
| 2026-05-07 08:59 | 48.70329 | 11.35871 | 16010 ft | 367 kts | 333° |
| 2026-05-07 08:59 | 48.72540 | 11.34059 | 16554 ft | 366 kts | 324° |
| 2026-05-07 09:00 | 48.74661 | 11.31910 | 17095 ft | 368 kts | 323° |
| 2026-05-07 09:00 | 48.76801 | 11.29735 | 17622 ft | 371 kts | 323° |
| 2026-05-07 09:00 | 48.78951 | 11.27544 | 18142 ft | 374 kts | 323° |
| 2026-05-07 09:00 | 48.81121 | 11.25332 | 18623 ft | 377 kts | 323° |
| 2026-05-07 09:01 | 48.83312 | 11.23124 | 19091 ft | 379 kts | 326° |
| 2026-05-07 09:01 | 48.85686 | 11.21336 | 19552 ft | 384 kts | 337° |
| 2026-05-07 09:01 | 48.88225 | 11.20035 | 20003 ft | 386 kts | 339° |
| 2026-05-07 09:01 | 48.90781 | 11.18750 | 20462 ft | 388 kts | 339° |
| 2026-05-07 09:02 | 48.93312 | 11.17471 | 20913 ft | 389 kts | 339° |
| 2026-05-07 09:02 | 48.95885 | 11.16162 | 21377 ft | 391 kts | 339° |
| 2026-05-07 09:02 | 48.98470 | 11.14845 | 21818 ft | 393 kts | 339° |
| 2026-05-07 09:02 | 49.01073 | 11.13519 | 22216 ft | 396 kts | 339° |
| 2026-05-07 09:03 | 49.03692 | 11.12185 | 22632 ft | 398 kts | 339° |
| 2026-05-07 09:03 | 49.06328 | 11.10839 | 23061 ft | 400 kts | 339° |
| 2026-05-07 09:03 | 49.08976 | 11.09483 | 23494 ft | 402 kts | 339° |
| 2026-05-07 09:03 | 49.11633 | 11.08121 | 23857 ft | 404 kts | 339° |
| 2026-05-07 09:04 | 49.14301 | 11.06754 | 24215 ft | 406 kts | 339° |
| 2026-05-07 09:04 | 49.16951 | 11.05398 | 24550 ft | 408 kts | 340° |
| 2026-05-07 09:04 | 49.19649 | 11.04023 | 24890 ft | 410 kts | 340° |
| 2026-05-07 09:04 | 49.22361 | 11.02638 | 25233 ft | 412 kts | 339° |
| 2026-05-07 09:05 | 49.25093 | 11.01235 | 25544 ft | 415 kts | 340° |
| 2026-05-07 09:05 | 49.27837 | 10.99819 | 25847 ft | 417 kts | 339° |
| 2026-05-07 09:05 | 49.30599 | 10.98392 | 26162 ft | 420 kts | 339° |
| 2026-05-07 09:05 | 49.33374 | 10.96961 | 26467 ft | 422 kts | 339° |
| 2026-05-07 09:06 | 49.36110 | 10.95304 | 26752 ft | 423 kts | 332° |
| 2026-05-07 09:06 | 49.38593 | 10.92999 | 27035 ft | 424 kts | 322° |
| 2026-05-07 09:06 | 49.40828 | 10.90043 | 27366 ft | 424 kts | 312° |
| 2026-05-07 09:06 | 49.42750 | 10.86610 | 27701 ft | 425 kts | 308° |
| 2026-05-07 09:07 | 49.44624 | 10.83074 | 27967 ft | 428 kts | 308° |
| 2026-05-07 09:07 | 49.46510 | 10.79509 | 28262 ft | 431 kts | 308° |
| 2026-05-07 09:07 | 49.48400 | 10.75924 | 28576 ft | 432 kts | 309° |
| 2026-05-07 09:07 | 49.50289 | 10.72339 | 28996 ft | 431 kts | 309° |
| 2026-05-07 09:08 | 49.52181 | 10.68738 | 29284 ft | 434 kts | 309° |
| 2026-05-07 09:08 | 49.54055 | 10.65157 | 29543 ft | 437 kts | 309° |
| 2026-05-07 09:08 | 49.55965 | 10.61502 | 29810 ft | 439 kts | 309° |
| 2026-05-07 09:08 | 49.57885 | 10.57830 | 30068 ft | 441 kts | 309° |
| 2026-05-07 09:09 | 49.59809 | 10.54150 | 30294 ft | 442 kts | 309° |
| 2026-05-07 09:09 | 49.61744 | 10.50448 | 30512 ft | 443 kts | 309° |
| 2026-05-07 09:09 | 49.63674 | 10.46742 | 30733 ft | 444 kts | 308° |
| 2026-05-07 09:09 | 49.65602 | 10.43017 | 30921 ft | 445 kts | 307° |
| 2026-05-07 09:10 | 49.67458 | 10.39186 | 31136 ft | 445 kts | 306° |
| 2026-05-07 09:10 | 49.69218 | 10.35281 | 31561 ft | 441 kts | 304° |
| 2026-05-07 09:10 | 49.70896 | 10.31392 | 31879 ft | 441 kts | 303° |
| 2026-05-07 09:10 | 49.72576 | 10.27429 | 32134 ft | 441 kts | 303° |
| 2026-05-07 09:11 | 49.74258 | 10.23466 | 32408 ft | 441 kts | 302° |
| 2026-05-07 09:11 | 49.75958 | 10.19506 | 32596 ft | 443 kts | 302° |
| 2026-05-07 09:11 | 49.77679 | 10.15546 | 32868 ft | 444 kts | 303° |
| 2026-05-07 09:11 | 49.79414 | 10.11589 | 33119 ft | 446 kts | 303° |
| 2026-05-07 09:12 | 49.81162 | 10.07616 | 33332 ft | 447 kts | 303° |
| 2026-05-07 09:12 | 49.82913 | 10.03637 | 33574 ft | 447 kts | 302° |
| 2026-05-07 09:12 | 49.84664 | 9.99650 | 33833 ft | 448 kts | 303° |
| 2026-05-07 09:12 | 49.86386 | 9.95709 | 34096 ft | 447 kts | 302° |
| 2026-05-07 09:13 | 49.88124 | 9.91718 | 34302 ft | 447 kts | 302° |
| 2026-05-07 09:13 | 49.89860 | 9.87724 | 34505 ft | 447 kts | 302° |
| 2026-05-07 09:13 | 49.91596 | 9.83728 | 34685 ft | 447 kts | 302° |
| 2026-05-07 09:13 | 49.93331 | 9.79724 | 34854 ft | 447 kts | 302° |
| 2026-05-07 09:14 | 49.95064 | 9.75718 | 35047 ft | 447 kts | 302° |
| 2026-05-07 09:14 | 49.96797 | 9.71710 | 35249 ft | 447 kts | 302° |
| 2026-05-07 09:14 | 49.98530 | 9.67696 | 35431 ft | 447 kts | 302° |
| 2026-05-07 09:14 | 50.00259 | 9.63679 | 35593 ft | 447 kts | 302° |
| 2026-05-07 09:15 | 50.01986 | 9.59657 | 35759 ft | 447 kts | 302° |
| 2026-05-07 09:15 | 50.03711 | 9.55634 | 35938 ft | 447 kts | 302° |
| 2026-05-07 09:15 | 50.05398 | 9.51645 | 36092 ft | 447 kts | 299° |
| 2026-05-07 09:15 | 50.06799 | 9.47335 | 36245 ft | 445 kts | 290° |
| 2026-05-07 09:16 | 50.07754 | 9.42763 | 36394 ft | 444 kts | 284° |
| 2026-05-07 09:16 | 50.08564 | 9.38121 | 36535 ft | 445 kts | 284° |
| 2026-05-07 09:16 | 50.09378 | 9.33473 | 36671 ft | 445 kts | 284° |
| 2026-05-07 09:16 | 50.10193 | 9.28826 | 36810 ft | 445 kts | 284° |
| 2026-05-07 09:17 | 50.11011 | 9.24178 | 36946 ft | 445 kts | 284° |
| 2026-05-07 09:17 | 50.11829 | 9.19534 | 37075 ft | 445 kts | 284° |
| 2026-05-07 09:17 | 50.12635 | 9.14946 | 37220 ft | 445 kts | 284° |
| 2026-05-07 09:17 | 50.13451 | 9.10299 | 37352 ft | 444 kts | 284° |
| 2026-05-07 09:18 | 50.14262 | 9.05656 | 37482 ft | 444 kts | 284° |
| 2026-05-07 09:18 | 50.15067 | 9.01016 | 37617 ft | 444 kts | 284° |
| 2026-05-07 09:18 | 50.15868 | 8.96371 | 37753 ft | 443 kts | 283° |
| 2026-05-07 09:18 | 50.16664 | 8.91733 | 37918 ft | 442 kts | 283° |
| 2026-05-07 09:19 | 50.18254 | 8.82457 | 38019 ft | 444 kts | 283° |
| 2026-05-07 09:19 | 50.19837 | 8.73209 | 38021 ft | 445 kts | 283° |
| 2026-05-07 09:20 | 50.21424 | 8.63882 | 38023 ft | 444 kts | 283° |
| 2026-05-07 09:20 | 50.23003 | 8.54553 | 38022 ft | 444 kts | 283° |
| 2026-05-07 09:21 | 50.24576 | 8.45210 | 38027 ft | 445 kts | 283° |
| 2026-05-07 09:21 | 50.26129 | 8.35918 | 38031 ft | 445 kts | 283° |
| 2026-05-07 09:22 | 50.27689 | 8.26553 | 38040 ft | 445 kts | 283° |
| 2026-05-07 09:22 | 50.29242 | 8.17171 | 38043 ft | 446 kts | 283° |
| 2026-05-07 09:23 | 50.30788 | 8.07779 | 38045 ft | 446 kts | 283° |
| 2026-05-07 09:23 | 50.32321 | 7.98437 | 38047 ft | 446 kts | 283° |
| 2026-05-07 09:24 | 50.33597 | 7.90619 | 38056 ft | 446 kts | 283° |
| 2026-05-07 09:24 | 50.35114 | 7.81197 | 38059 ft | 446 kts | 283° |
| 2026-05-07 09:25 | 50.36625 | 7.71787 | 38059 ft | 445 kts | 283° |
| 2026-05-07 09:25 | 50.38378 | 7.60850 | 38057 ft | 445 kts | 283° |
| 2026-05-07 09:26 | 50.39876 | 7.51440 | 38050 ft | 445 kts | 283° |
| 2026-05-07 09:26 | 50.41371 | 7.42034 | 38051 ft | 445 kts | 283° |
| 2026-05-07 09:27 | 50.42854 | 7.32621 | 38047 ft | 444 kts | 283° |
| 2026-05-07 09:28 | 50.45002 | 7.18840 | 38039 ft | 444 kts | 283° |